createdAt,value
2019-06-08T00:01:16.416Z,62.60
2019-06-08T00:03:44.642Z,62.90
2019-06-08T00:06:12.700Z,62.90
2019-06-08T00:08:40.931Z,62.90
2019-06-08T00:11:08.905Z,63.00
2019-06-08T00:13:36.940Z,62.90
2019-06-08T00:16:05.174Z,62.90
2019-06-08T00:18:33.284Z,62.90
2019-06-08T00:21:01.305Z,62.90
2019-06-08T00:23:29.332Z,62.80
2019-06-08T00:25:57.518Z,62.80
2019-06-08T00:28:25.558Z,63.00
2019-06-08T00:30:53.495Z,63.00
2019-06-08T00:33:22.630Z,62.90
2019-06-08T00:35:50.830Z,62.90
2019-06-08T00:38:18.985Z,63.00
2019-06-08T00:40:47.369Z,63.10
2019-06-08T00:43:15.535Z,63.10
2019-06-08T00:45:43.512Z,63.00
2019-06-08T00:48:11.501Z,64.00
2019-06-08T00:50:39.541Z,63.20
2019-06-08T00:53:07.514Z,63.20
2019-06-08T00:55:35.525Z,63.20
2019-06-08T00:58:03.670Z,63.20
2019-06-08T01:00:31.894Z,63.30
2019-06-08T01:03:00.230Z,63.40
2019-06-08T01:05:28.571Z,63.40
2019-06-08T01:07:57.112Z,63.40
2019-06-08T01:10:26.025Z,63.50
2019-06-08T01:12:54.246Z,63.50
2019-06-08T01:15:29.750Z,63.40
2019-06-08T01:18:02.577Z,63.40
2019-06-08T01:20:23.574Z,63.60
2019-06-08T01:23:08.079Z,63.50
2019-06-08T01:25:36.335Z,63.60
2019-06-08T01:28:04.433Z,63.80
2019-06-08T01:30:32.575Z,63.70
2019-06-08T01:33:03.538Z,63.70
2019-06-08T01:35:31.724Z,63.90
2019-06-08T01:37:59.755Z,63.90
2019-06-08T01:40:27.897Z,64.00
2019-06-08T01:42:55.886Z,63.80
2019-06-08T01:45:30.176Z,64.00
2019-06-08T01:48:00.923Z,63.90
2019-06-08T01:50:30.556Z,64.00
2019-06-08T01:52:59.544Z,64.10
2019-06-08T01:55:29.085Z,64.10
2019-06-08T01:57:57.575Z,64.10
2019-06-08T02:00:32.524Z,63.50
2019-06-08T02:02:56.891Z,64.10
2019-06-08T02:05:26.073Z,64.20
2019-06-08T02:07:54.155Z,64.20
2019-06-08T02:10:22.898Z,64.20
2019-06-08T02:12:50.970Z,64.20
2019-06-08T02:15:19.385Z,64.20
2019-06-08T02:17:47.379Z,64.20
2019-06-08T02:20:17.349Z,64.30
2019-06-08T02:22:45.364Z,64.30
2019-06-08T02:25:15.505Z,64.30
2019-06-08T02:27:44.694Z,64.20
2019-06-08T02:30:15.126Z,64.30
2019-06-08T02:32:43.571Z,64.20
2019-06-08T02:35:11.848Z,64.30
2019-06-08T02:37:40.181Z,64.30
2019-06-08T02:40:08.425Z,64.30
2019-06-08T02:42:37.168Z,64.20
2019-06-08T02:45:06.112Z,64.60
2019-06-08T02:47:34.509Z,64.30
2019-06-08T02:50:03.466Z,64.40
2019-06-08T02:52:34.097Z,64.30
2019-06-08T02:55:03.017Z,64.50
2019-06-08T02:57:36.074Z,64.50
2019-06-08T03:00:06.478Z,64.50
2019-06-08T03:02:36.887Z,64.50
2019-06-08T03:05:05.338Z,64.50
2019-06-08T03:07:36.891Z,64.50
2019-06-08T03:10:05.734Z,64.60
2019-06-08T03:12:37.543Z,64.70
2019-06-08T03:15:08.627Z,64.60
2019-06-08T03:17:37.725Z,65.20
2019-06-08T03:20:07.132Z,64.50
2019-06-08T03:22:37.175Z,64.50
2019-06-08T03:25:05.602Z,64.50
2019-06-08T03:27:34.842Z,64.60
2019-06-08T03:30:16.481Z,64.60
2019-06-08T03:32:37.873Z,64.70
2019-06-08T03:35:04.934Z,64.70
2019-06-08T03:37:33.324Z,64.80
2019-06-08T03:40:01.635Z,64.80
2019-06-08T03:42:29.734Z,64.60
2019-06-08T03:44:57.728Z,64.70
2019-06-08T03:47:25.723Z,65.40
2019-06-08T03:49:57.411Z,64.80
2019-06-08T03:52:24.650Z,64.90
2019-06-08T03:54:52.746Z,64.80
2019-06-08T03:57:20.714Z,64.90
2019-06-08T03:59:49.163Z,64.90
2019-06-08T04:02:17.166Z,64.80
2019-06-08T04:04:46.313Z,64.90
2019-06-08T04:07:14.566Z,64.90
2019-06-08T04:09:43.635Z,64.60
2019-06-08T04:12:13.597Z,64.90
2019-06-08T04:14:42.166Z,65.00
2019-06-08T04:17:10.750Z,65.10
2019-06-08T04:19:39.857Z,65.10
2019-06-08T04:22:08.279Z,65.10
2019-06-08T04:24:37.936Z,65.30
2019-06-08T04:27:06.386Z,65.30
2019-06-08T04:29:34.356Z,65.50
2019-06-08T04:32:02.779Z,65.40
2019-06-08T04:34:30.844Z,65.60
2019-06-08T04:36:58.970Z,65.60
2019-06-08T04:39:27.066Z,65.70
2019-06-08T04:41:55.164Z,65.70
2019-06-08T04:44:23.295Z,65.10
2019-06-08T04:46:51.418Z,65.70
2019-06-08T04:49:19.419Z,65.60
2019-06-08T04:51:49.573Z,65.70
2019-06-08T04:54:18.069Z,65.70
2019-06-08T04:56:47.049Z,65.80
2019-06-08T04:59:15.237Z,65.90
2019-06-08T05:01:45.027Z,65.80
2019-06-08T05:04:13.336Z,65.90
2019-06-08T05:06:42.768Z,65.90
2019-06-08T05:09:12.712Z,66.00
2019-06-08T05:11:41.134Z,66.00
2019-06-08T05:14:09.289Z,66.00
2019-06-08T05:16:38.999Z,66.00
2019-06-08T05:19:07.219Z,65.90
2019-06-08T05:21:35.250Z,65.60
2019-06-08T05:24:03.808Z,65.50
2019-06-08T05:26:31.783Z,65.50
2019-06-08T05:28:59.813Z,65.30
2019-06-08T05:31:28.116Z,65.00
2019-06-08T05:33:56.081Z,65.20
2019-06-08T05:36:24.415Z,64.90
2019-06-08T05:38:52.516Z,64.90
2019-06-08T05:41:23.922Z,65.00
2019-06-08T05:43:50.799Z,65.20
2019-06-08T05:46:18.813Z,65.10
2019-06-08T05:48:48.003Z,65.00
2019-06-08T05:51:16.053Z,65.40
2019-06-08T05:53:44.031Z,65.10
2019-06-08T05:56:12.040Z,65.20
2019-06-08T05:58:40.106Z,65.00
2019-06-08T06:01:08.096Z,65.00
2019-06-08T06:03:36.197Z,64.90
2019-06-08T06:06:05.216Z,65.00
2019-06-08T06:08:33.238Z,65.00
2019-06-08T06:11:01.220Z,64.90
2019-06-08T06:13:30.550Z,65.00
2019-06-08T06:15:58.582Z,64.90
2019-06-08T06:18:26.649Z,64.90
2019-06-08T06:21:09.695Z,65.00
2019-06-08T06:23:24.653Z,64.80
2019-06-08T06:25:52.724Z,65.10
2019-06-08T06:28:20.714Z,64.90
2019-06-08T06:30:50.234Z,64.90
2019-06-08T06:33:19.787Z,64.90
2019-06-08T06:35:49.955Z,64.80
2019-06-08T06:38:18.164Z,64.80
2019-06-08T06:40:46.312Z,64.80
2019-06-08T06:43:14.572Z,64.90
2019-06-08T06:45:44.008Z,64.80
2019-06-08T06:48:12.374Z,64.90
2019-06-08T06:50:40.326Z,64.90
2019-06-08T06:53:08.348Z,65.00
2019-06-08T06:55:36.569Z,65.10
2019-06-08T06:58:05.022Z,65.30
2019-06-08T07:00:33.220Z,65.50
2019-06-08T07:03:01.441Z,65.20
2019-06-08T07:05:30.011Z,65.60
2019-06-08T07:07:58.353Z,63.00
2019-06-08T07:10:26.750Z,61.90
2019-06-08T07:12:55.088Z,60.50
2019-06-08T07:15:27.817Z,60.10
2019-06-08T07:17:58.592Z,59.70
2019-06-08T07:20:27.645Z,58.80
2019-06-08T07:22:55.824Z,58.80
2019-06-08T07:25:23.886Z,58.30
2019-06-08T07:27:52.651Z,58.10
2019-06-08T07:30:20.966Z,57.50
2019-06-08T07:32:49.359Z,57.20
2019-06-08T07:35:17.357Z,57.00
2019-06-08T07:37:45.378Z,57.10
2019-06-08T07:40:13.675Z,55.90
2019-06-08T07:42:41.882Z,55.90
2019-06-08T07:45:10.500Z,56.70
2019-06-08T07:47:38.925Z,56.00
2019-06-08T07:50:08.049Z,55.30
2019-06-08T07:52:36.838Z,54.60
2019-06-08T07:55:05.658Z,55.00
2019-06-08T07:57:33.662Z,54.60
2019-06-08T08:00:08.813Z,54.70
2019-06-08T08:02:32.031Z,54.30
2019-06-08T08:05:00.508Z,54.10
2019-06-08T08:07:28.514Z,54.00
2019-06-08T08:09:57.091Z,53.80
2019-06-08T08:12:25.341Z,52.90
2019-06-08T08:14:53.464Z,53.10
2019-06-08T08:17:21.819Z,53.10
2019-06-08T08:19:51.095Z,53.10
2019-06-08T08:22:25.686Z,53.40
2019-06-08T08:24:53.411Z,53.00
2019-06-08T08:27:19.712Z,53.00
2019-06-08T08:29:48.966Z,52.60
2019-06-08T08:32:18.832Z,52.50
2019-06-08T08:34:47.669Z,52.60
2019-06-08T08:37:17.622Z,52.10
2019-06-08T08:39:47.365Z,52.50
2019-06-08T08:42:17.859Z,52.30
2019-06-08T08:44:45.414Z,52.50
2019-06-08T08:47:13.362Z,53.20
2019-06-08T08:49:41.661Z,53.70
2019-06-08T08:52:11.634Z,54.10
2019-06-08T08:54:42.900Z,55.10
2019-06-08T08:57:11.006Z,54.60
2019-06-08T08:59:39.309Z,55.10
2019-06-08T09:02:11.351Z,55.10
2019-06-08T09:04:38.291Z,55.20
2019-06-08T09:07:09.632Z,55.50
2019-06-08T09:09:38.689Z,55.80
2019-06-08T09:12:08.311Z,56.00
2019-06-08T09:14:38.695Z,56.20
2019-06-08T09:17:08.612Z,56.10
2019-06-08T09:19:38.204Z,56.20
2019-06-08T09:22:08.586Z,56.50
2019-06-08T09:24:39.072Z,56.70
2019-06-08T09:27:08.067Z,56.90
2019-06-08T09:29:38.818Z,57.00
2019-06-08T09:32:08.355Z,57.20
2019-06-08T09:34:38.559Z,57.40
2019-06-08T09:37:08.089Z,57.60
2019-06-08T09:39:38.546Z,57.70
2019-06-08T09:42:08.993Z,58.10
2019-06-08T09:44:37.784Z,58.50
2019-06-08T09:47:12.107Z,58.90
2019-06-08T09:49:37.754Z,59.40
2019-06-08T09:52:08.629Z,59.60
2019-06-08T09:54:38.440Z,60.10
2019-06-08T09:57:08.789Z,60.80
2019-06-08T09:59:38.657Z,61.30
2019-06-08T10:02:12.456Z,61.10
2019-06-08T10:04:38.686Z,61.90
2019-06-08T10:07:08.845Z,61.80
2019-06-08T10:09:38.102Z,60.50
2019-06-08T10:12:09.769Z,58.60
2019-06-08T10:14:37.962Z,58.00
2019-06-08T10:17:08.691Z,56.80
2019-06-08T10:19:36.156Z,56.80
2019-06-08T10:22:05.154Z,56.70
2019-06-08T10:24:33.289Z,55.30
2019-06-08T10:27:01.441Z,54.60
2019-06-08T10:29:29.512Z,54.40
2019-06-08T10:31:57.652Z,54.30
2019-06-08T10:34:27.307Z,53.70
2019-06-08T10:37:03.349Z,53.90
2019-06-08T10:39:28.661Z,54.20
2019-06-08T10:41:59.299Z,54.20
2019-06-08T10:44:28.395Z,54.10
2019-06-08T10:47:01.350Z,53.40
2019-06-08T10:49:28.677Z,53.30
2019-06-08T10:52:01.196Z,53.40
2019-06-08T10:54:27.730Z,53.40
2019-06-08T10:56:59.685Z,53.30
2019-06-08T10:59:28.789Z,53.40
2019-06-08T11:02:00.905Z,53.20
2019-06-08T11:04:28.497Z,53.30
2019-06-08T11:07:00.234Z,52.70
2019-06-08T11:09:28.580Z,53.00
2019-06-08T11:11:58.393Z,52.50
2019-06-08T11:14:26.764Z,52.50
2019-06-08T11:16:54.829Z,52.60
2019-06-08T11:19:26.171Z,52.00
2019-06-08T11:21:52.811Z,51.90
2019-06-08T11:24:24.933Z,52.00
2019-06-08T11:26:50.855Z,51.90
2019-06-08T11:29:19.046Z,51.80
2019-06-08T11:31:47.959Z,51.80
2019-06-08T11:34:18.590Z,51.60
2019-06-08T11:36:48.906Z,51.60
2019-06-08T11:39:18.725Z,51.70
2019-06-08T11:41:48.492Z,52.10
2019-06-08T11:44:17.997Z,52.50
2019-06-08T11:46:47.757Z,53.00
2019-06-08T11:49:18.572Z,53.30
2019-06-08T11:51:47.823Z,53.70
2019-06-08T11:54:29.465Z,53.90
2019-06-08T11:56:48.212Z,54.60
2019-06-08T11:59:18.432Z,54.20
2019-06-08T12:01:50.211Z,54.30
2019-06-08T12:04:18.415Z,54.30
2019-06-08T12:06:48.424Z,54.70
2019-06-08T12:09:18.858Z,54.70
2019-06-08T12:11:48.035Z,55.00
2019-06-08T12:14:17.773Z,55.30
2019-06-08T12:16:45.947Z,55.30
2019-06-08T12:19:17.121Z,55.50
2019-06-08T12:21:43.892Z,55.70
2019-06-08T12:24:12.348Z,55.80
2019-06-08T12:26:40.605Z,56.10
2019-06-08T12:29:11.301Z,56.10
2019-06-08T12:31:38.658Z,56.20
2019-06-08T12:34:07.192Z,56.40
2019-06-08T12:36:37.422Z,56.30
2019-06-08T12:39:07.869Z,56.40
2019-06-08T12:41:37.723Z,56.40
2019-06-08T12:44:07.523Z,56.40
2019-06-08T12:46:40.847Z,56.50
2019-06-08T12:49:05.744Z,56.50
2019-06-08T12:51:33.894Z,56.60
2019-06-08T12:54:01.964Z,56.70
2019-06-08T12:56:30.209Z,56.70
2019-06-08T12:58:58.338Z,56.70
2019-06-08T13:01:28.143Z,56.90
2019-06-08T13:03:58.160Z,56.90
2019-06-08T13:06:28.278Z,56.90
2019-06-08T13:08:57.745Z,57.00
2019-06-08T13:11:28.219Z,57.10
2019-06-08T13:13:56.923Z,57.20
2019-06-08T13:16:28.241Z,57.30
2019-06-08T13:18:58.527Z,57.20
2019-06-08T13:21:34.758Z,57.20
2019-06-08T13:23:58.060Z,57.30
2019-06-08T13:26:28.613Z,57.30
2019-06-08T13:28:58.316Z,57.30
2019-06-08T13:31:28.696Z,57.30
2019-06-08T13:33:58.550Z,57.40
2019-06-08T13:37:05.479Z,57.30
2019-06-08T13:39:33.620Z,57.50
2019-06-08T13:42:01.831Z,57.50
2019-06-08T13:44:30.401Z,57.50
2019-06-08T13:46:58.875Z,57.50
2019-06-08T13:49:30.557Z,57.60
2019-06-08T13:51:58.415Z,57.70
2019-06-08T13:54:30.853Z,57.80
2019-06-08T13:56:59.020Z,58.00
2019-06-08T13:59:30.583Z,58.00
2019-06-08T14:01:57.993Z,58.10
2019-06-08T14:04:27.444Z,58.20
2019-06-08T14:06:57.750Z,58.30
2019-06-08T14:09:28.452Z,58.30
2019-06-08T14:11:57.796Z,58.30
2019-06-08T14:14:26.598Z,58.30
2019-06-08T14:16:58.729Z,58.30
2019-06-08T14:19:29.673Z,58.40
2019-06-08T14:21:57.426Z,58.50
2019-06-08T14:24:29.950Z,58.60
2019-06-08T14:26:58.282Z,58.80
2019-06-08T14:29:28.862Z,58.70
2019-06-08T14:31:57.813Z,58.70
2019-06-08T14:34:29.071Z,58.80
2019-06-08T14:36:58.977Z,58.90
2019-06-08T14:39:29.647Z,58.90
2019-06-08T14:41:57.833Z,59.10
2019-06-08T14:44:31.272Z,59.20
2019-06-08T14:46:57.976Z,59.30
2019-06-08T14:49:30.516Z,59.40
2019-06-08T14:51:57.977Z,59.60
2019-06-08T14:54:32.615Z,59.60
2019-06-08T14:56:57.753Z,59.70
2019-06-08T14:59:27.813Z,59.70
2019-06-08T15:01:56.067Z,60.00
2019-06-08T15:04:28.472Z,60.00
2019-06-08T15:06:54.817Z,60.10
2019-06-08T15:09:23.483Z,60.20
2019-06-08T15:11:51.910Z,60.40
2019-06-08T15:14:21.613Z,60.40
2019-06-08T15:16:49.700Z,60.60
2019-06-08T15:19:18.450Z,60.70
2019-06-08T15:22:22.298Z,60.60
2019-06-08T15:24:58.010Z,60.60
2019-06-08T15:27:29.728Z,61.50
2019-06-08T15:29:58.568Z,60.90
2019-06-08T15:32:28.274Z,60.80
2019-06-08T15:34:57.747Z,60.90
2019-06-08T15:37:28.129Z,61.00
2019-06-08T15:39:58.428Z,60.20
2019-06-08T15:42:28.718Z,59.80
2019-06-08T15:44:59.427Z,59.00
2019-06-08T15:47:26.207Z,58.60
2019-06-08T15:49:58.647Z,58.60
2019-06-08T15:52:27.140Z,58.30
2019-06-08T15:54:58.991Z,58.60
2019-06-08T15:57:29.587Z,57.90
2019-06-08T15:59:58.568Z,58.30
2019-06-08T16:02:27.322Z,57.50
2019-06-08T16:04:55.614Z,57.60
2019-06-08T16:07:28.510Z,57.90
2019-06-08T16:09:56.690Z,57.60
2019-06-08T16:12:26.201Z,58.20
2019-06-08T16:14:55.472Z,58.10
2019-06-08T16:17:25.114Z,58.40
2019-06-08T16:19:53.507Z,58.50
2019-06-08T16:22:22.472Z,58.10
2019-06-08T16:24:50.926Z,57.90
2019-06-08T16:27:19.986Z,57.80
2019-06-08T16:29:48.500Z,57.60
2019-06-08T16:32:18.488Z,57.70
2019-06-08T16:34:48.943Z,57.50
2019-06-08T16:37:17.234Z,57.40
2019-06-08T16:39:45.613Z,56.80
2019-06-08T16:42:14.115Z,57.00
2019-06-08T16:44:42.406Z,57.40
2019-06-08T16:47:10.387Z,57.30
2019-06-08T16:49:39.647Z,57.10
2019-06-08T16:52:08.172Z,57.00
2019-06-08T16:54:38.982Z,56.50
2019-06-08T16:57:10.561Z,56.40
2019-06-08T16:59:39.036Z,56.10
2019-06-08T17:02:08.070Z,55.70
2019-06-08T17:04:37.197Z,55.80
2019-06-08T17:07:05.262Z,55.40
2019-06-08T17:09:34.261Z,54.80
2019-06-08T17:12:03.183Z,54.90
2019-06-08T17:14:31.961Z,55.00
2019-06-08T17:17:00.286Z,55.20
2019-06-08T17:19:28.465Z,54.90
2019-06-08T17:21:56.506Z,54.90
2019-06-08T17:24:24.641Z,54.60
2019-06-08T17:26:52.753Z,54.40
2019-06-08T17:29:21.035Z,54.90
2019-06-08T17:31:49.147Z,54.70
2019-06-08T17:34:20.436Z,54.70
2019-06-08T17:36:47.099Z,54.70
2019-06-08T17:39:15.237Z,54.70
2019-06-08T17:41:43.815Z,54.70
2019-06-08T17:44:12.005Z,54.80
2019-06-08T17:46:41.180Z,54.60
2019-06-08T17:49:09.889Z,54.70
2019-06-08T17:51:39.216Z,54.80
2019-06-08T17:54:07.433Z,54.40
2019-06-08T17:56:37.056Z,54.40
2019-06-08T17:59:05.287Z,54.30
2019-06-08T18:01:34.388Z,54.10
2019-06-08T18:04:04.450Z,54.20
2019-06-08T18:06:33.584Z,54.50
2019-06-08T18:09:01.798Z,54.40
2019-06-08T18:11:31.683Z,54.40
2019-06-08T18:13:59.990Z,54.20
2019-06-08T18:16:28.060Z,54.20
2019-06-08T18:18:57.685Z,54.30
2019-06-08T18:21:30.882Z,54.30
2019-06-08T18:23:59.092Z,54.30
2019-06-08T18:26:27.846Z,54.30
2019-06-08T18:28:57.989Z,54.30
2019-06-08T18:31:27.627Z,54.30
2019-06-08T18:33:57.884Z,54.30
2019-06-08T18:36:27.601Z,54.40
2019-06-08T18:38:58.032Z,54.50
2019-06-08T18:41:27.134Z,54.40
2019-06-08T18:43:58.183Z,54.40
2019-06-08T18:46:27.195Z,54.40
2019-06-08T18:48:57.880Z,54.40
2019-06-08T18:51:27.975Z,54.60
2019-06-08T18:54:08.525Z,54.60
2019-06-08T18:56:27.591Z,54.80
2019-06-08T18:58:58.172Z,54.70
2019-06-08T19:01:27.557Z,55.00
2019-06-08T19:03:57.942Z,54.80
2019-06-08T19:06:27.837Z,54.90
2019-06-08T19:08:58.011Z,54.90
2019-06-08T19:11:28.640Z,55.10
2019-06-08T19:13:58.067Z,55.10
2019-06-08T19:16:28.521Z,55.20
2019-06-08T19:18:58.080Z,55.20
2019-06-08T19:21:28.179Z,55.40
2019-06-08T19:23:56.393Z,55.30
2019-06-08T19:26:24.756Z,55.30
2019-06-08T19:28:54.247Z,55.40
2019-06-08T19:31:22.874Z,55.50
2019-06-08T19:33:53.298Z,55.60
2019-06-08T19:36:21.100Z,55.70
2019-06-08T19:38:54.504Z,55.70
2019-06-08T19:41:19.262Z,55.70
2019-06-08T19:43:53.950Z,55.70
2019-06-08T19:46:18.182Z,55.80
2019-06-08T19:48:53.220Z,55.90
2019-06-08T19:51:17.233Z,56.30
2019-06-08T19:53:48.488Z,56.30
2019-06-08T19:56:17.379Z,56.30
2019-06-08T19:58:57.102Z,56.30
2019-06-08T20:01:18.158Z,56.30
2019-06-08T20:03:46.967Z,56.30
2019-06-08T20:06:17.590Z,57.00
2019-06-08T20:08:45.226Z,56.40
2019-06-08T20:11:13.232Z,56.40
2019-06-08T20:13:41.259Z,56.30
2019-06-08T20:16:09.314Z,56.20
2019-06-08T20:18:37.660Z,56.20
2019-06-08T20:21:09.993Z,56.30
2019-06-08T20:23:38.058Z,56.30
2019-06-08T20:26:08.179Z,56.30
2019-06-08T20:28:37.311Z,56.20
2019-06-08T20:31:07.473Z,56.20
2019-06-08T20:33:37.666Z,56.30
2019-06-08T20:36:08.075Z,56.60
2019-06-08T20:38:39.711Z,56.30
2019-06-08T20:41:07.615Z,56.30
2019-06-08T20:43:38.109Z,56.20
2019-06-08T20:46:08.152Z,56.20
2019-06-08T20:48:37.789Z,56.10
2019-06-08T20:51:07.821Z,56.10
2019-06-08T20:53:38.253Z,56.00
2019-06-08T20:56:08.030Z,56.00
2019-06-08T20:58:37.153Z,55.90
2019-06-08T21:01:07.420Z,56.50
2019-06-08T21:03:35.465Z,56.60
2019-06-08T21:06:03.655Z,57.30
2019-06-08T21:08:32.013Z,57.10
2019-06-08T21:11:00.397Z,57.00
2019-06-08T21:13:28.576Z,57.10
2019-06-08T21:16:00.268Z,57.30
2019-06-08T21:18:27.631Z,57.40
2019-06-08T21:20:58.075Z,57.80
2019-06-08T21:23:28.106Z,57.60
2019-06-08T21:26:00.004Z,57.80
2019-06-08T21:28:28.026Z,57.90
2019-06-08T21:31:00.962Z,58.20
2019-06-08T21:33:26.302Z,58.40
2019-06-08T21:36:03.435Z,58.70
2019-06-08T21:38:25.046Z,58.50
2019-06-08T21:40:55.983Z,58.80
2019-06-08T21:43:24.115Z,59.30
2019-06-08T21:45:53.612Z,58.70
2019-06-08T21:48:22.208Z,59.50
2019-06-08T21:50:52.126Z,58.80
2019-06-08T21:53:20.181Z,58.90
2019-06-08T21:55:49.456Z,59.00
2019-06-08T21:58:19.881Z,59.00
2019-06-08T22:00:51.140Z,59.20
2019-06-08T22:03:19.956Z,59.20
2019-06-08T22:05:48.210Z,59.20
2019-06-08T22:08:17.352Z,59.30
2019-06-08T22:10:47.150Z,59.40
2019-06-08T22:13:17.481Z,59.50
2019-06-08T22:15:47.473Z,59.60
2019-06-08T22:18:18.295Z,59.60
2019-06-08T22:20:47.633Z,59.70
2019-06-08T22:23:17.905Z,59.80
2019-06-08T22:25:47.746Z,59.70
2019-06-08T22:28:17.710Z,60.00
2019-06-08T22:30:48.078Z,60.80
2019-06-08T22:33:17.585Z,60.00
2019-06-08T22:35:47.768Z,60.20
2019-06-08T22:38:17.730Z,60.20
2019-06-08T22:40:47.851Z,60.50
2019-06-08T22:43:18.386Z,60.50
2019-06-08T22:45:48.173Z,60.60
2019-06-08T22:48:18.636Z,60.60
2019-06-08T22:50:47.693Z,60.60
2019-06-08T22:53:15.801Z,60.80
2019-06-08T22:55:43.926Z,60.70
2019-06-08T22:58:12.029Z,60.90
2019-06-08T23:00:51.301Z,60.90
2019-06-08T23:03:10.194Z,60.90
2019-06-08T23:05:38.409Z,61.10
2019-06-08T23:08:09.329Z,61.10
2019-06-08T23:10:37.640Z,61.30
2019-06-08T23:13:08.295Z,61.30
2019-06-08T23:15:36.037Z,61.50
2019-06-08T23:18:04.612Z,61.50
2019-06-08T23:20:33.972Z,61.70
2019-06-08T23:23:03.037Z,61.60
2019-06-08T23:25:32.063Z,61.70
2019-06-08T23:28:00.266Z,61.80
2019-06-08T23:30:28.385Z,61.90
2019-06-08T23:32:57.288Z,62.00
2019-06-08T23:35:27.577Z,62.20
2019-06-08T23:37:56.808Z,62.00
2019-06-08T23:40:27.114Z,62.10
2019-06-08T23:42:58.077Z,62.20
2019-06-08T23:45:27.200Z,63.20
2019-06-08T23:47:58.425Z,62.30
2019-06-08T23:50:27.250Z,63.40
2019-06-08T23:52:55.394Z,62.50
2019-06-08T23:55:23.483Z,62.90
2019-06-08T23:57:51.685Z,63.00
